createdAt,value
2022-12-19T00:01:36.242Z,-7.86
2022-12-19T00:04:08.358Z,-7.90
2022-12-19T00:06:36.486Z,-7.91
2022-12-19T00:09:03.127Z,-7.92
2022-12-19T00:11:30.155Z,-7.93
2022-12-19T00:13:57.597Z,-7.93
2022-12-19T00:16:28.408Z,-7.98
2022-12-19T00:18:57.060Z,-8.03
2022-12-19T00:21:25.734Z,-8.03
2022-12-19T00:23:52.683Z,-8.04
2022-12-19T00:26:25.494Z,-8.05
2022-12-19T00:28:54.831Z,-8.02
2022-12-19T00:31:25.549Z,-7.99
2022-12-19T00:33:52.355Z,-7.99
2022-12-19T00:36:23.020Z,-7.96
2022-12-19T00:38:51.413Z,-7.95
2022-12-19T00:41:23.230Z,-7.95
2022-12-19T00:44:04.457Z,-7.92
2022-12-19T00:46:32.662Z,-7.90
2022-12-19T00:48:59.951Z,-7.84
2022-12-19T00:51:29.301Z,-7.75
2022-12-19T00:53:57.627Z,-7.64
2022-12-19T00:56:27.731Z,-7.48
2022-12-19T00:58:55.092Z,-7.31
2022-12-19T01:01:30.830Z,-7.15
2022-12-19T01:04:27.330Z,-6.97
2022-12-19T01:06:45.550Z,-6.73
2022-12-19T01:09:12.706Z,-6.56
2022-12-19T01:11:57.786Z,-6.41
2022-12-19T01:14:24.368Z,-6.24
2022-12-19T01:16:54.178Z,-6.10
2022-12-19T01:19:20.774Z,-5.93
2022-12-19T01:21:47.334Z,-5.79
2022-12-19T01:24:15.217Z,-5.67
2022-12-19T01:26:46.085Z,-5.50
2022-12-19T01:29:12.807Z,-5.36
2022-12-19T01:31:39.491Z,-5.24
2022-12-19T01:34:06.101Z,-5.14
2022-12-19T01:36:32.752Z,-5.05
2022-12-19T01:38:59.272Z,-4.96
2022-12-19T01:41:25.845Z,-4.87
2022-12-19T01:44:00.121Z,-4.77
2022-12-19T01:46:40.983Z,-4.70
2022-12-19T01:49:15.848Z,-4.65
2022-12-19T01:51:46.713Z,-4.58
2022-12-19T01:54:24.329Z,-4.50
2022-12-19T01:56:53.192Z,-4.45
2022-12-19T01:59:27.011Z,-4.41
2022-12-19T02:02:00.185Z,-4.37
2022-12-19T02:04:31.908Z,-4.33
2022-12-19T02:07:00.274Z,-4.25
2022-12-19T02:09:40.127Z,-4.21
2022-12-19T02:12:06.764Z,-4.17
2022-12-19T02:14:34.631Z,-4.13
2022-12-19T02:17:17.683Z,-4.08
2022-12-19T02:19:53.184Z,-4.03
2022-12-19T02:23:03.270Z,-3.99
2022-12-19T02:25:45.010Z,-3.95
2022-12-19T02:28:35.710Z,-3.93
2022-12-19T02:31:19.412Z,-3.89
2022-12-19T02:33:59.924Z,-3.85
2022-12-19T02:36:38.901Z,-3.84
2022-12-19T02:39:09.531Z,-3.80
2022-12-19T02:41:44.050Z,-3.76
2022-12-19T02:44:19.218Z,-3.73
2022-12-19T02:46:47.972Z,-3.70
2022-12-19T02:49:19.169Z,-3.67
2022-12-19T02:51:52.593Z,-3.62
2022-12-19T02:54:19.590Z,-3.59
2022-12-19T02:56:58.995Z,-3.57
2022-12-19T03:00:06.157Z,-3.53
2022-12-19T03:02:40.831Z,-3.52
2022-12-19T03:05:29.223Z,-3.45
2022-12-19T03:08:07.574Z,-3.42
2022-12-19T03:10:48.724Z,-3.41
2022-12-19T03:13:21.748Z,-3.39
2022-12-19T03:15:49.268Z,-3.37
2022-12-19T03:18:15.852Z,-3.33
2022-12-19T03:20:59.742Z,-3.31
2022-12-19T03:23:28.095Z,-3.28
2022-12-19T03:25:59.529Z,-3.28
2022-12-19T03:28:33.471Z,-3.28
2022-12-19T03:31:02.088Z,-3.29
2022-12-19T03:33:31.619Z,-3.29
2022-12-19T03:36:01.494Z,-3.26
2022-12-19T03:38:28.693Z,-3.26
2022-12-19T03:40:56.394Z,-3.22
2022-12-19T03:43:24.202Z,-3.20
2022-12-19T03:46:09.073Z,-3.19
2022-12-19T03:48:51.028Z,-3.16
2022-12-19T03:51:35.093Z,-3.16
2022-12-19T03:54:25.183Z,-3.16
2022-12-19T03:57:02.130Z,-3.15
2022-12-19T04:00:03.613Z,-3.11
2022-12-19T04:02:34.290Z,-3.08
2022-12-19T04:05:08.670Z,-3.07
2022-12-19T04:07:38.017Z,-3.04
2022-12-19T04:10:07.970Z,-3.01
2022-12-19T04:12:40.346Z,-3.01
2022-12-19T04:15:08.067Z,-2.99
2022-12-19T04:17:58.217Z,-2.97
2022-12-19T04:20:27.103Z,-2.95
2022-12-19T04:22:59.504Z,-2.93
2022-12-19T04:25:34.154Z,-2.93
2022-12-19T04:28:10.337Z,-2.90
2022-12-19T04:30:39.886Z,-2.90
2022-12-19T04:33:06.459Z,-2.89
2022-12-19T04:35:35.134Z,-2.86
2022-12-19T04:38:02.237Z,-2.84
2022-12-19T04:40:29.197Z,-2.80
2022-12-19T04:42:55.793Z,-2.78
2022-12-19T04:45:22.391Z,-2.76
2022-12-19T04:47:49.369Z,-2.71
2022-12-19T04:50:15.905Z,-2.66
2022-12-19T04:52:42.440Z,-2.63
2022-12-19T04:55:09.490Z,-2.60
2022-12-19T04:57:36.144Z,-2.57
2022-12-19T05:00:05.061Z,-2.55
2022-12-19T05:02:32.175Z,-2.52
2022-12-19T05:04:58.911Z,-2.49
2022-12-19T05:07:25.507Z,-2.48
2022-12-19T05:09:52.087Z,-2.48
2022-12-19T05:12:18.633Z,-2.46
2022-12-19T05:14:45.570Z,-2.44
2022-12-19T05:17:12.092Z,-2.42
2022-12-19T05:19:38.681Z,-2.40
2022-12-19T05:22:05.366Z,-2.38
2022-12-19T05:24:31.933Z,-2.38
2022-12-19T05:26:58.752Z,-2.36
2022-12-19T05:29:25.340Z,-2.35
2022-12-19T05:31:51.883Z,-2.34
2022-12-19T05:34:18.421Z,-2.31
2022-12-19T05:36:45.032Z,-2.30
2022-12-19T05:39:11.622Z,-2.30
2022-12-19T05:41:38.223Z,-2.28
2022-12-19T05:44:05.102Z,-2.27
2022-12-19T05:46:31.761Z,-2.29
2022-12-19T05:48:59.302Z,-2.25
2022-12-19T05:51:25.974Z,-2.23
2022-12-19T05:53:52.675Z,-2.21
2022-12-19T05:56:21.923Z,-2.19
2022-12-19T05:58:49.191Z,-2.17
2022-12-19T06:01:21.170Z,-2.15
2022-12-19T06:03:48.956Z,-2.16
2022-12-19T06:06:18.202Z,-2.14
2022-12-19T06:08:45.271Z,-2.13
2022-12-19T06:11:13.558Z,-2.11
2022-12-19T06:13:40.963Z,-2.08
2022-12-19T06:16:11.021Z,-2.07
2022-12-19T06:18:42.878Z,-2.04
2022-12-19T06:21:14.704Z,-2.03
2022-12-19T06:23:41.920Z,-2.00
2022-12-19T06:26:16.876Z,-2.02
2022-12-19T06:28:46.105Z,-2.00
2022-12-19T06:31:13.403Z,-1.98
2022-12-19T06:33:40.083Z,-1.98
2022-12-19T06:36:13.858Z,-1.96
2022-12-19T06:38:40.519Z,-1.94
2022-12-19T06:41:25.286Z,-1.94
2022-12-19T06:43:53.520Z,-1.90
2022-12-19T06:46:20.755Z,-1.89
2022-12-19T06:48:47.369Z,-1.86
2022-12-19T06:51:14.068Z,-1.85
2022-12-19T06:53:40.576Z,-1.84
2022-12-19T06:56:07.585Z,-1.81
2022-12-19T06:58:34.921Z,-1.81
2022-12-19T07:01:01.834Z,-1.79
2022-12-19T07:03:37.617Z,-1.80
2022-12-19T07:06:04.890Z,-1.78
2022-12-19T07:08:31.444Z,-1.77
2022-12-19T07:10:59.068Z,-1.76
2022-12-19T07:13:27.497Z,-1.74
2022-12-19T07:15:59.654Z,-1.70
2022-12-19T07:18:26.451Z,-1.69
2022-12-19T07:20:53.002Z,-1.66
2022-12-19T07:23:22.109Z,-1.62
2022-12-19T07:25:48.718Z,-1.61
2022-12-19T07:28:16.261Z,-1.60
2022-12-19T07:30:42.769Z,-1.58
2022-12-19T07:33:11.259Z,-1.55
2022-12-19T07:35:38.918Z,-1.55
2022-12-19T07:38:06.832Z,-1.54
2022-12-19T07:40:34.339Z,-1.52
2022-12-19T07:43:05.780Z,-1.54
2022-12-19T07:45:33.019Z,-1.54
2022-12-19T07:48:03.505Z,-1.53
2022-12-19T07:50:30.619Z,-1.52
2022-12-19T07:52:58.385Z,-1.49
2022-12-19T07:55:25.802Z,-1.51
2022-12-19T07:57:53.529Z,-1.58
2022-12-19T08:00:20.172Z,-1.62
2022-12-19T08:02:47.790Z,-1.61
2022-12-19T08:05:14.476Z,-1.58
2022-12-19T08:07:41.008Z,-1.55
2022-12-19T08:10:08.299Z,-1.46
2022-12-19T08:12:34.893Z,-1.37
2022-12-19T08:15:01.606Z,-1.28
2022-12-19T08:17:28.340Z,-1.19
2022-12-19T08:19:54.871Z,-1.11
2022-12-19T08:22:21.580Z,-1.04
2022-12-19T08:24:48.140Z,-0.98
2022-12-19T08:27:16.937Z,-0.96
2022-12-19T08:29:43.438Z,-0.86
2022-12-19T08:32:10.256Z,-0.77
2022-12-19T08:34:37.471Z,-0.65
2022-12-19T08:37:03.989Z,-0.57
2022-12-19T08:39:32.558Z,-0.49
2022-12-19T08:41:59.279Z,-0.40
2022-12-19T08:44:26.758Z,-0.33
2022-12-19T08:46:53.337Z,-0.29
2022-12-19T08:49:21.096Z,-0.26
2022-12-19T08:51:47.728Z,-0.29
2022-12-19T08:54:14.292Z,-0.38
2022-12-19T08:56:46.577Z,-0.46
2022-12-19T08:59:21.973Z,-0.49
2022-12-19T09:01:57.398Z,-0.50
2022-12-19T09:05:59.490Z,-0.35
2022-12-19T09:07:10.679Z,-0.16
2022-12-19T09:09:37.154Z,0.13
2022-12-19T09:12:04.013Z,0.70
2022-12-19T09:14:35.079Z,1.47
2022-12-19T09:17:01.729Z,2.10
2022-12-19T09:19:30.524Z,2.27
2022-12-19T09:21:57.067Z,2.36
2022-12-19T09:24:23.658Z,2.74
2022-12-19T09:26:50.167Z,3.20
2022-12-19T09:29:20.781Z,3.42
2022-12-19T09:31:55.372Z,3.94
2022-12-19T09:34:37.336Z,4.49
2022-12-19T09:37:11.661Z,4.83
2022-12-19T09:39:43.140Z,5.01
2022-12-19T09:42:26.988Z,5.39
2022-12-19T09:45:18.734Z,5.87
2022-12-19T09:48:01.335Z,6.45
2022-12-19T09:50:35.481Z,6.99
2022-12-19T09:53:19.269Z,7.64
2022-12-19T09:55:47.998Z,8.25
2022-12-19T09:58:41.166Z,8.53
2022-12-19T10:01:18.152Z,9.02
2022-12-19T10:03:51.465Z,9.41
2022-12-19T10:06:58.939Z,9.84
2022-12-19T10:11:45.831Z,10.27
2022-12-19T10:12:44.698Z,10.55
2022-12-19T10:15:04.823Z,10.64
2022-12-19T10:17:45.632Z,10.89
2022-12-19T10:20:12.250Z,10.88
2022-12-19T10:23:00.148Z,10.68
2022-12-19T10:25:44.898Z,10.28
2022-12-19T10:28:11.370Z,9.64
2022-12-19T10:30:45.241Z,9.84
2022-12-19T10:33:19.971Z,9.59
2022-12-19T10:35:54.396Z,9.56
2022-12-19T10:38:33.378Z,9.37
2022-12-19T10:41:27.326Z,9.52
2022-12-19T10:44:10.298Z,10.05
2022-12-19T10:46:46.192Z,10.38
2022-12-19T10:49:27.018Z,10.80
2022-12-19T10:51:56.223Z,11.20
2022-12-19T10:54:27.597Z,11.24
2022-12-19T10:57:18.872Z,11.34
2022-12-19T11:00:04.319Z,10.73
2022-12-19T11:02:44.771Z,10.78
2022-12-19T11:05:31.881Z,10.06
2022-12-19T11:08:00.234Z,10.06
2022-12-19T11:13:22.982Z,9.83
2022-12-19T11:19:13.424Z,9.78
2022-12-19T11:26:39.216Z,10.31
2022-12-19T11:29:31.604Z,10.63
2022-12-19T11:29:54.531Z,10.75
2022-12-19T11:30:42.999Z,10.49
2022-12-19T11:30:46.600Z,9.78
2022-12-19T11:33:27.936Z,8.94
2022-12-19T11:35:58.992Z,8.99
2022-12-19T11:38:48.935Z,9.38
2022-12-19T11:41:18.876Z,9.90
2022-12-19T11:44:08.687Z,10.20
2022-12-19T11:46:49.265Z,9.79
2022-12-19T11:49:37.216Z,9.83
2022-12-19T11:53:07.828Z,9.91
2022-12-19T11:55:47.387Z,10.01
2022-12-19T11:58:14.195Z,10.11
2022-12-19T12:00:50.760Z,10.12
2022-12-19T12:03:39.139Z,10.52
2022-12-19T12:06:18.176Z,11.05
2022-12-19T12:12:05.022Z,11.59
2022-12-19T12:16:34.937Z,11.94
2022-12-19T12:29:22.899Z,12.28
2022-12-19T12:30:10.119Z,12.24
2022-12-19T12:31:10.132Z,12.10
2022-12-19T12:31:41.205Z,11.92
2022-12-19T12:31:51.539Z,11.65
2022-12-19T12:35:31.715Z,10.64
2022-12-19T12:40:32.834Z,10.07
2022-12-19T12:43:37.047Z,10.11
2022-12-19T12:46:05.387Z,10.16
2022-12-19T12:48:43.046Z,10.08
2022-12-19T12:51:10.636Z,10.17
2022-12-19T12:53:45.113Z,10.10
2022-12-19T12:56:14.685Z,10.17
2022-12-19T12:58:47.127Z,10.26
2022-12-19T13:01:28.918Z,10.29
2022-12-19T13:04:24.645Z,10.19
2022-12-19T13:06:51.098Z,10.07
2022-12-19T13:09:17.564Z,10.15
2022-12-19T13:12:09.414Z,10.12
2022-12-19T13:14:35.995Z,10.00
2022-12-19T13:17:12.792Z,9.71
2022-12-19T13:19:58.022Z,9.51
2022-12-19T13:22:30.496Z,9.48
2022-12-19T13:24:59.343Z,9.41
2022-12-19T13:27:25.887Z,9.26
2022-12-19T13:30:03.586Z,9.17
2022-12-19T13:32:53.046Z,9.26
2022-12-19T13:36:49.321Z,9.09
2022-12-19T13:39:54.165Z,8.81
2022-12-19T13:41:23.229Z,8.37
2022-12-19T13:43:50.019Z,7.97
2022-12-19T13:46:22.594Z,7.69
2022-12-19T13:49:25.087Z,7.36
2022-12-19T13:51:57.216Z,7.00
2022-12-19T13:54:49.276Z,6.62
2022-12-19T13:57:28.523Z,6.35
2022-12-19T14:00:01.318Z,6.16
2022-12-19T14:02:44.499Z,5.94
2022-12-19T14:06:16.096Z,5.69
2022-12-19T14:08:28.382Z,5.39
2022-12-19T14:11:33.841Z,5.16
2022-12-19T14:14:16.109Z,4.72
2022-12-19T14:16:46.685Z,4.29
2022-12-19T14:19:22.887Z,4.01
2022-12-19T14:22:06.316Z,3.74
2022-12-19T14:24:36.540Z,3.54
2022-12-19T14:28:26.197Z,3.30
2022-12-19T14:30:27.441Z,3.03
2022-12-19T14:33:43.497Z,2.82
2022-12-19T14:36:07.515Z,2.59
2022-12-19T14:39:24.704Z,2.45
2022-12-19T14:42:00.614Z,2.19
2022-12-19T14:52:08.020Z,2.02
2022-12-19T14:54:04.474Z,1.90
2022-12-19T14:54:15.727Z,1.77
2022-12-19T14:54:55.334Z,1.58
2022-12-19T14:59:03.082Z,1.27
2022-12-19T15:01:33.496Z,1.16
2022-12-19T15:04:51.448Z,1.10
2022-12-19T15:07:11.308Z,1.00
2022-12-19T15:10:58.320Z,0.88
2022-12-19T15:14:50.735Z,0.74
2022-12-19T15:16:26.589Z,0.62
2022-12-19T15:18:56.906Z,0.50
2022-12-19T15:21:24.004Z,0.38
2022-12-19T15:23:50.623Z,0.31
2022-12-19T15:26:20.095Z,0.16
2022-12-19T15:28:51.379Z,0.10
2022-12-19T15:31:41.582Z,0.03
2022-12-19T15:34:46.635Z,-0.03
2022-12-19T15:37:13.266Z,-0.09
2022-12-19T15:39:40.810Z,-0.16
2022-12-19T15:42:18.700Z,-0.22
2022-12-19T15:44:47.145Z,-0.25
2022-12-19T15:47:29.774Z,-0.32
2022-12-19T15:49:56.435Z,-0.34
2022-12-19T15:52:24.039Z,-0.41
2022-12-19T15:54:51.246Z,-0.44
2022-12-19T15:57:36.816Z,-0.51
2022-12-19T16:00:07.800Z,-0.50
2022-12-19T16:03:13.300Z,-0.57
2022-12-19T16:05:22.907Z,-0.64
2022-12-19T16:07:49.650Z,-0.66
2022-12-19T16:10:17.778Z,-0.68
2022-12-19T16:12:48.365Z,-0.72
2022-12-19T16:15:34.651Z,-0.78
2022-12-19T16:18:03.363Z,-0.82
2022-12-19T16:20:39.403Z,-0.82
2022-12-19T16:23:07.183Z,-0.81
2022-12-19T16:25:41.025Z,-0.81
2022-12-19T16:28:15.014Z,-0.77
2022-12-19T16:30:44.374Z,-0.76
2022-12-19T16:33:23.154Z,-0.74
2022-12-19T16:36:07.379Z,-0.72
2022-12-19T16:38:35.005Z,-0.70
2022-12-19T16:41:01.945Z,-0.66
2022-12-19T16:43:33.387Z,-0.65
2022-12-19T16:46:01.808Z,-0.63
2022-12-19T16:48:32.229Z,-0.59
2022-12-19T16:50:59.457Z,-0.57
2022-12-19T16:53:26.229Z,-0.56
2022-12-19T16:55:55.437Z,-0.56
2022-12-19T16:58:25.636Z,-0.53
2022-12-19T17:00:55.071Z,-0.51
2022-12-19T17:03:42.278Z,-0.49
2022-12-19T17:06:17.435Z,-0.49
2022-12-19T17:08:44.799Z,-0.49
2022-12-19T17:11:24.281Z,-0.52
2022-12-19T17:13:55.353Z,-0.51
2022-12-19T17:16:22.048Z,-0.53
2022-12-19T17:18:48.967Z,-0.54
2022-12-19T17:21:21.805Z,-0.51
2022-12-19T17:23:49.820Z,-0.51
2022-12-19T17:26:18.172Z,-0.53
2022-12-19T17:28:48.173Z,-0.56
2022-12-19T17:31:28.044Z,-0.56
2022-12-19T17:33:56.521Z,-0.57
2022-12-19T17:36:36.584Z,-0.56
2022-12-19T17:39:18.097Z,-0.57
2022-12-19T17:41:45.027Z,-0.59
2022-12-19T17:44:11.750Z,-0.57
2022-12-19T17:46:38.596Z,-0.56
2022-12-19T17:49:05.560Z,-0.53
2022-12-19T17:51:32.127Z,-0.54
2022-12-19T17:53:58.652Z,-0.55
2022-12-19T17:56:25.179Z,-0.55
2022-12-19T17:58:51.861Z,-0.55
2022-12-19T18:01:24.182Z,-0.55
2022-12-19T18:03:53.651Z,-0.55
2022-12-19T18:06:20.416Z,-0.57
2022-12-19T18:08:47.147Z,-0.58
2022-12-19T18:11:23.273Z,-0.59
2022-12-19T18:13:52.049Z,-0.62
2022-12-19T18:16:22.637Z,-0.64
2022-12-19T18:18:49.781Z,-0.64
2022-12-19T18:21:19.161Z,-0.64
2022-12-19T18:23:46.417Z,-0.63
2022-12-19T18:26:13.380Z,-0.62
2022-12-19T18:28:40.726Z,-0.61
2022-12-19T18:31:25.400Z,-0.61
2022-12-19T18:33:54.668Z,-0.60
2022-12-19T18:36:27.361Z,-0.61
2022-12-19T18:38:57.191Z,-0.60
2022-12-19T18:41:23.830Z,-0.60
2022-12-19T18:43:50.469Z,-0.60
2022-12-19T18:46:22.326Z,-0.62
2022-12-19T18:48:49.082Z,-0.65
2022-12-19T18:51:19.922Z,-0.64
2022-12-19T18:53:47.773Z,-0.64
2022-12-19T18:56:14.946Z,-0.66
2022-12-19T18:58:41.812Z,-0.68
2022-12-19T19:01:17.618Z,-0.71
2022-12-19T19:03:53.269Z,-0.72
2022-12-19T19:06:22.894Z,-0.72
2022-12-19T19:08:51.582Z,-0.72
2022-12-19T19:11:20.309Z,-0.74
2022-12-19T19:13:46.831Z,-0.75
2022-12-19T19:16:20.432Z,-0.74
2022-12-19T19:18:50.778Z,-0.78
2022-12-19T19:21:18.367Z,-0.81
2022-12-19T19:23:55.468Z,-0.82
2022-12-19T19:26:22.194Z,-0.81
2022-12-19T19:28:52.194Z,-0.82
2022-12-19T19:31:23.416Z,-0.82
2022-12-19T19:34:00.647Z,-0.83
2022-12-19T19:36:31.119Z,-0.81
2022-12-19T19:38:58.342Z,-0.82
2022-12-19T19:41:29.838Z,-0.81
2022-12-19T19:43:58.739Z,-0.80
2022-12-19T19:46:26.066Z,-0.81
2022-12-19T19:48:52.736Z,-0.79
2022-12-19T19:51:19.333Z,-0.79
2022-12-19T19:53:46.121Z,-0.80
2022-12-19T19:56:12.699Z,-0.80
2022-12-19T19:58:39.767Z,-0.82
2022-12-19T20:01:13.521Z,-0.82
2022-12-19T20:03:42.098Z,-0.82
2022-12-19T20:06:10.352Z,-0.79
2022-12-19T20:08:40.023Z,-0.79
2022-12-19T20:11:09.174Z,-0.78
2022-12-19T20:13:36.240Z,-0.77
2022-12-19T20:16:06.541Z,-0.76
2022-12-19T20:18:33.780Z,-0.74
2022-12-19T20:21:00.377Z,-0.75
2022-12-19T20:23:27.054Z,-0.74
2022-12-19T20:25:53.764Z,-0.74
2022-12-19T20:28:20.444Z,-0.75
2022-12-19T20:30:47.314Z,-0.75
2022-12-19T20:33:14.083Z,-0.75
2022-12-19T20:35:40.724Z,-0.73
2022-12-19T20:38:07.243Z,-0.73
2022-12-19T20:40:33.803Z,-0.73
2022-12-19T20:43:00.286Z,-0.74
2022-12-19T20:45:26.864Z,-0.75
2022-12-19T20:47:53.413Z,-0.78
2022-12-19T20:50:19.960Z,-0.75
2022-12-19T20:52:46.487Z,-0.74
2022-12-19T20:55:13.251Z,-0.75
2022-12-19T20:57:39.739Z,-0.75
2022-12-19T21:00:10.501Z,-0.77
2022-12-19T21:03:16.806Z,-0.77
2022-12-19T21:05:23.625Z,-0.76
2022-12-19T21:07:50.197Z,-0.78
2022-12-19T21:10:16.823Z,-0.76
2022-12-19T21:12:47.676Z,-0.77
2022-12-19T21:15:15.542Z,-0.78
2022-12-19T21:17:42.265Z,-0.77
2022-12-19T21:20:09.444Z,-0.78
2022-12-19T21:22:36.014Z,-0.77
2022-12-19T21:25:03.996Z,-0.76
2022-12-19T21:27:30.530Z,-0.79
2022-12-19T21:29:57.209Z,-0.81
2022-12-19T21:32:23.739Z,-0.82
2022-12-19T21:34:53.031Z,-0.83
2022-12-19T21:37:19.729Z,-0.82
2022-12-19T21:39:46.256Z,-0.82
2022-12-19T21:42:12.773Z,-0.83
2022-12-19T21:44:39.379Z,-0.82
2022-12-19T21:47:05.972Z,-0.81
2022-12-19T21:49:33.573Z,-0.79
2022-12-19T21:52:00.108Z,-0.81
2022-12-19T21:54:26.661Z,-0.81
2022-12-19T21:56:53.274Z,-0.82
2022-12-19T21:59:19.759Z,-0.85
2022-12-19T22:01:46.623Z,-0.90
2022-12-19T22:04:21.028Z,-0.91
2022-12-19T22:06:48.927Z,-0.95
2022-12-19T22:09:18.830Z,-0.98
2022-12-19T22:11:46.330Z,-1.01
2022-12-19T22:14:14.732Z,-1.02
2022-12-19T22:16:42.184Z,-1.04
2022-12-19T22:19:09.962Z,-1.05
2022-12-19T22:21:37.170Z,-1.08
2022-12-19T22:24:04.725Z,-1.11
2022-12-19T22:26:32.086Z,-1.15
2022-12-19T22:28:59.094Z,-1.20
2022-12-19T22:31:30.892Z,-1.27
2022-12-19T22:34:03.440Z,-1.31
2022-12-19T22:36:32.858Z,-1.36
2022-12-19T22:39:01.192Z,-1.42
2022-12-19T22:41:28.355Z,-1.49
2022-12-19T22:43:55.776Z,-1.53
2022-12-19T22:46:28.018Z,-1.61
2022-12-19T22:48:59.715Z,-1.67
2022-12-19T22:51:27.898Z,-1.70
2022-12-19T22:53:54.865Z,-1.74
2022-12-19T22:56:23.978Z,-1.77
2022-12-19T22:58:52.925Z,-1.76
2022-12-19T23:01:25.383Z,-1.78
2022-12-19T23:03:53.805Z,-1.79
2022-12-19T23:06:20.810Z,-1.81
2022-12-19T23:08:47.611Z,-1.83
2022-12-19T23:11:17.434Z,-1.86
2022-12-19T23:13:45.473Z,-1.91
2022-12-19T23:16:13.279Z,-1.90
2022-12-19T23:18:40.910Z,-1.93
2022-12-19T23:21:17.411Z,-1.96
2022-12-19T23:23:45.688Z,-1.95
2022-12-19T23:26:18.369Z,-1.98
2022-12-19T23:28:49.514Z,-1.99
2022-12-19T23:31:16.035Z,-2.00
2022-12-19T23:33:42.543Z,-2.03
2022-12-19T23:36:10.236Z,-2.05
2022-12-19T23:38:36.804Z,-2.06
2022-12-19T23:41:05.610Z,-2.09
2022-12-19T23:43:33.640Z,-2.11
2022-12-19T23:46:00.251Z,-2.12
2022-12-19T23:48:28.525Z,-2.13
2022-12-19T23:51:04.024Z,-2.14
2022-12-19T23:53:31.718Z,-2.12
2022-12-19T23:55:58.983Z,-2.12
2022-12-19T23:58:25.618Z,-2.12
